Time;durP1;ratioP1;P1;durP2;ratioP2;P2;SDS_P1;SDS_P2;PMS_P1;PMS_P2;Temp;Humidity;BMP_temperature;BMP_pressure;BME280_temperature;BME280_humidity;BME280_pressure;Samples;Min_cycle;Max_cycle;Signal;HPM_P1;HPM_P2
2022/11/16 00:01:18;;;;;;;20.23;12.85;;;11.20;86.30;;;;;;5034590;28;20164;-63
2022/11/16 00:03:44;;;;;;;18.77;13.30;;;11.20;86.30;;;;;;5034942;28;22154;-62
2022/11/16 00:06:11;;;;;;;15.20;11.90;;;11.20;86.20;;;;;;5036620;28;20129;-61
2022/11/16 00:08:40;;;;;;;16.60;11.90;;;11.20;86.20;;;;;;5032318;28;20065;-61
2022/11/16 00:11:06;;;;;;;16.88;11.88;;;11.20;86.20;;;;;;5032548;28;20041;-62
2022/11/16 00:13:35;;;;;;;14.90;11.80;;;11.20;86.30;;;;;;5034632;28;20049;-62
2022/11/16 00:16:01;;;;;;;14.43;11.57;;;11.20;86.40;;;;;;5035249;28;20033;-60
2022/11/16 00:18:27;;;;;;;15.27;10.95;;;11.20;86.40;;;;;;5035391;28;20586;-62
2022/11/16 00:20:53;;;;;;;15.10;10.70;;;11.20;86.50;;;;;;5034715;28;20040;-62
2022/11/16 00:23:19;;;;;;;16.10;11.35;;;11.20;86.40;;;;;;5034743;28;20033;-62
2022/11/16 00:25:45;;;;;;;14.02;10.88;;;11.20;86.50;;;;;;5032904;28;20492;-62
2022/11/16 00:28:11;;;;;;;14.35;10.82;;;11.10;86.50;;;;;;5034447;28;20032;-62
2022/11/16 00:30:36;;;;;;;19.02;11.95;;;11.10;86.70;;;;;;5034586;28;20433;-62
2022/11/16 00:33:03;;;;;;;17.42;11.98;;;11.10;86.70;;;;;;5035168;28;20034;-61
2022/11/16 00:35:29;;;;;;;15.52;11.23;;;11.00;86.70;;;;;;5035985;28;20037;-60
2022/11/16 00:37:54;;;;;;;15.07;10.82;;;11.00;87.00;;;;;;5036491;28;22360;-61
2022/11/16 00:40:20;;;;;;;16.38;11.50;;;11.00;87.10;;;;;;5035594;28;20029;-62
2022/11/16 00:42:46;;;;;;;17.70;12.15;;;11.00;87.10;;;;;;5032365;28;20048;-60
2022/11/16 00:45:11;;;;;;;16.83;11.52;;;11.00;87.10;;;;;;5034612;28;20025;-61
2022/11/16 00:47:37;;;;;;;14.48;10.57;;;11.00;87.40;;;;;;5035016;28;20032;-63
2022/11/16 00:50:03;;;;;;;13.95;10.35;;;11.00;87.40;;;;;;5032975;28;20056;-62
2022/11/16 00:52:28;;;;;;;15.50;9.93;;;11.00;87.40;;;;;;5033352;28;20064;-62
2022/11/16 00:54:54;;;;;;;14.73;9.88;;;11.00;87.40;;;;;;5033392;28;20049;-62
2022/11/16 00:57:20;;;;;;;14.20;10.10;;;11.00;87.40;;;;;;5033354;28;20037;-61
2022/11/16 00:59:45;;;;;;;15.48;9.98;;;11.00;87.60;;;;;;5036665;28;20546;-63
2022/11/16 01:02:11;;;;;;;14.48;10.30;;;11.10;87.70;;;;;;5035442;28;20029;-63
2022/11/16 01:04:36;;;;;;;13.18;10.13;;;11.10;87.70;;;;;;5033930;28;20551;-63
2022/11/16 01:07:02;;;;;;;15.27;9.70;;;11.10;87.70;;;;;;5036540;28;20038;-63
2022/11/16 01:09:27;;;;;;;14.00;10.13;;;11.10;87.60;;;;;;5035806;28;20029;-62
2022/11/16 01:12:08;;;;;;;12.27;10.15;;;11.10;87.60;;;;;;5037165;28;20033;-62
2022/11/16 01:14:45;;;;;;;12.45;9.57;;;11.10;87.60;;;;;;5034132;28;20084;-62
2022/11/16 01:17:12;;;;;;;12.45;10.07;;;11.10;88.00;;;;;;5035376;28;20030;-63
2022/11/16 01:19:37;;;;;;;14.90;10.15;;;11.10;87.80;;;;;;5033244;28;20032;-63
2022/11/16 01:22:03;;;;;;;13.57;10.32;;;11.10;87.90;;;;;;5035156;28;20038;-63
2022/11/16 01:24:29;;;;;;;14.20;10.73;;;11.10;88.00;;;;;;5033256;28;20083;-63
2022/11/16 01:26:58;;;;;;;14.93;9.80;;;11.10;87.90;;;;;;5033152;28;20041;-63
2022/11/16 01:29:25;;;;;;;14.20;9.68;;;11.10;87.80;;;;;;5034372;28;20111;-63
2022/11/16 01:31:51;;;;;;;12.73;9.85;;;11.10;87.80;;;;;;5034406;28;20112;-62
2022/11/16 01:34:17;;;;;;;13.93;9.93;;;11.10;87.70;;;;;;5033479;28;20040;-63
2022/11/16 01:36:42;;;;;;;13.15;10.35;;;11.10;87.80;;;;;;5035048;28;20037;-63
2022/11/16 01:39:10;;;;;;;13.90;9.73;;;11.20;87.80;;;;;;5034694;28;20091;-63
2022/11/16 01:41:36;;;;;;;14.18;9.73;;;11.20;87.70;;;;;;5035640;28;20055;-63
2022/11/16 01:44:05;;;;;;;14.43;9.63;;;11.10;87.80;;;;;;5033716;28;20039;-64
2022/11/16 01:46:31;;;;;;;12.88;9.32;;;11.10;87.90;;;;;;5030802;28;20068;-63
2022/11/16 01:49:05;;;;;;;11.45;9.30;;;11.10;88.00;;;;;;5034288;28;20064;-63
2022/11/16 01:51:32;;;;;;;11.75;9.40;;;11.10;88.30;;;;;;5032628;28;20086;-63
2022/11/16 01:54:00;;;;;;;14.32;9.68;;;11.10;88.10;;;;;;5034504;28;20037;-62
2022/11/16 01:56:25;;;;;;;15.32;10.27;;;11.10;88.20;;;;;;5034105;28;20073;-63
2022/11/16 01:58:52;;;;;;;14.40;9.75;;;11.10;88.20;;;;;;5034255;28;20049;-63
2022/11/16 02:01:17;;;;;;;14.23;9.63;;;11.10;88.30;;;;;;5034965;28;20025;-63
2022/11/16 02:03:43;;;;;;;11.55;8.93;;;11.10;88.20;;;;;;5032829;28;20044;-63
2022/11/16 02:06:24;;;;;;;12.25;9.40;;;11.10;88.20;;;;;;5033849;28;20118;-63
2022/11/16 02:12:32;;;;;;;11.88;9.20;;;11.20;88.50;;;;;;5029228;28;20090;-63
2022/11/16 02:15:17;;;;;;;12.95;9.55;;;11.20;88.40;;;;;;5034791;28;20048;-63
2022/11/16 02:17:51;;;;;;;13.70;9.18;;;11.20;88.30;;;;;;5033797;28;20042;-63
2022/11/16 02:20:37;;;;;;;13.20;9.85;;;11.20;88.20;;;;;;5037543;28;20029;-63
2022/11/16 02:23:06;;;;;;;11.43;9.30;;;11.20;88.00;;;;;;5036787;28;20037;-63
2022/11/16 02:26:04;;;;;;;13.15;9.48;;;11.20;87.80;;;;;;5037493;28;20037;-63
2022/11/16 02:28:45;;;;;;;12.52;9.63;;;11.20;88.10;;;;;;5036486;28;20530;-63
2022/11/16 02:31:16;;;;;;;12.15;9.65;;;11.20;87.60;;;;;;5036719;28;20065;-63
2022/11/16 02:33:44;;;;;;;15.05;10.38;;;11.20;87.70;;;;;;5036516;28;20112;-63
2022/11/16 02:36:13;;;;;;;12.70;9.30;;;11.10;87.60;;;;;;5037149;28;20578;-63
2022/11/16 02:38:43;;;;;;;12.25;9.13;;;11.10;87.80;;;;;;5037609;28;20040;-63
2022/11/16 02:41:13;;;;;;;12.40;9.60;;;11.00;88.00;;;;;;5034505;28;20030;-63
2022/11/16 02:43:46;;;;;;;13.32;9.93;;;11.00;88.20;;;;;;5036371;28;20068;-63
2022/11/16 02:46:18;;;;;;;13.27;10.52;;;11.00;88.50;;;;;;5036671;28;20524;-63
2022/11/16 02:48:49;;;;;;;13.77;9.85;;;11.00;88.50;;;;;;5036222;28;20076;-63
2022/11/16 02:51:16;;;;;;;12.32;9.63;;;10.90;88.50;;;;;;5036197;28;20611;-64
2022/11/16 02:54:01;;;;;;;13.02;9.30;;;10.90;88.40;;;;;;5036488;28;20195;-64
2022/11/16 02:56:28;;;;;;;13.38;10.00;;;10.90;88.60;;;;;;5034594;28;20037;-64
2022/11/16 02:58:54;;;;;;;12.85;10.20;;;10.90;88.50;;;;;;5036727;28;20025;-64
2022/11/16 03:01:29;;;;;;;12.35;9.98;;;10.90;88.60;;;;;;5035401;28;20040;-63
2022/11/16 03:04:07;;;;;;;13.55;10.32;;;10.90;88.80;;;;;;5036138;28;20029;-63
2022/11/16 03:06:38;;;;;;;13.82;10.05;;;10.90;89.00;;;;;;5035666;28;20083;-64
2022/11/16 03:09:13;;;;;;;12.68;10.45;;;10.90;88.80;;;;;;5037548;28;20370;-63
2022/11/16 03:11:59;;;;;;;11.68;9.55;;;10.90;89.20;;;;;;5033692;28;20503;-64
2022/11/16 03:14:37;;;;;;;12.38;9.70;;;10.90;89.10;;;;;;5037033;28;20033;-65
2022/11/16 03:17:06;;;;;;;14.60;10.00;;;10.90;89.30;;;;;;5035162;28;20041;-64
2022/11/16 03:19:48;;;;;;;11.93;9.65;;;10.90;89.30;;;;;;5035948;28;20029;-63
2022/11/16 03:22:18;;;;;;;11.85;9.32;;;10.90;89.60;;;;;;5036888;28;20032;-64
2022/11/16 03:24:44;;;;;;;13.07;9.40;;;10.90;89.40;;;;;;5039653;28;20042;-63
2022/11/16 03:27:28;;;;;;;11.73;9.23;;;10.90;89.40;;;;;;5036402;28;20041;-64
2022/11/16 03:30:03;;;;;;;12.63;9.00;;;10.80;89.30;;;;;;5037573;28;20045;-63
2022/11/16 03:32:50;;;;;;;12.18;9.68;;;10.90;89.60;;;;;;5037421;28;20041;-63
2022/11/16 03:35:23;;;;;;;12.18;9.15;;;10.90;89.90;;;;;;5037415;28;20412;-64
2022/11/16 03:37:51;;;;;;;11.55;8.93;;;10.90;89.70;;;;;;5036559;28;20127;-63
2022/11/16 03:40:18;;;;;;;10.70;8.57;;;10.80;89.50;;;;;;5034849;28;20041;-63
2022/11/16 03:42:45;;;;;;;10.55;8.60;;;10.80;89.50;;;;;;5032061;28;20143;-63
2022/11/16 03:45:12;;;;;;;11.85;8.85;;;10.80;89.70;;;;;;5034169;28;20033;-64
2022/11/16 03:47:40;;;;;;;11.10;8.48;;;10.80;89.80;;;;;;5034804;28;20040;-63
2022/11/16 03:50:06;;;;;;;10.80;8.30;;;10.80;89.80;;;;;;5036494;28;20053;-64
2022/11/16 03:52:32;;;;;;;11.70;8.50;;;10.80;89.90;;;;;;5036148;28;20041;-63
2022/11/16 03:54:58;;;;;;;11.88;8.65;;;10.80;89.90;;;;;;5036282;28;20047;-64
2022/11/16 03:57:23;;;;;;;11.07;8.35;;;10.80;89.90;;;;;;5032885;28;20029;-63
2022/11/16 03:59:49;;;;;;;10.00;8.65;;;10.80;89.90;;;;;;5032870;28;20068;-63
2022/11/16 04:02:15;;;;;;;14.13;9.20;;;10.80;89.90;;;;;;5034065;28;20041;-63
2022/11/16 04:24:11;;;;;;;11.43;8.77;;;10.70;90.10;;;;;;5033120;28;20047;-63
2022/11/16 04:29:22;;;;;;;;;;;10.60;90.10;;;;;;5035804;28;20479;-61
2022/11/16 04:40:03;;;;;;;8.38;7.47;;;10.60;90.00;;;;;;5032163;28;20051;-64
2022/11/16 04:42:28;;;;;;;7.97;6.97;;;10.60;90.10;;;;;;5034155;28;20029;-63
2022/11/16 04:47:38;;;;;;;8.90;7.38;;;10.60;90.10;;;;;;5036251;28;20703;-63
2022/11/16 04:50:04;;;;;;;9.27;7.47;;;10.60;90.20;;;;;;5034896;28;20030;-63
2022/11/16 04:52:29;;;;;;;8.88;7.47;;;10.60;90.20;;;;;;5032629;28;20041;-64
2022/11/16 04:54:55;;;;;;;7.82;6.90;;;10.60;90.30;;;;;;5032290;28;20044;-64
2022/11/16 04:57:21;;;;;;;8.82;7.47;;;10.60;90.40;;;;;;5033679;28;20033;-64
2022/11/16 04:59:46;;;;;;;8.82;7.47;;;10.60;90.40;;;;;;5032484;28;20194;-64
2022/11/16 05:02:12;;;;;;;9.30;7.40;;;10.60;90.40;;;;;;5034438;28;20033;-64
2022/11/16 05:04:39;;;;;;;8.63;7.60;;;10.60;90.40;;;;;;5032311;28;20362;-64
2022/11/16 05:07:09;;;;;;;8.65;7.10;;;10.60;90.50;;;;;;5034625;28;20450;-64
2022/11/16 05:09:41;;;;;;;12.20;7.78;;;10.60;90.50;;;;;;5032765;28;20025;-64
2022/11/16 05:12:09;;;;;;;9.10;7.70;;;10.70;90.50;;;;;;5028055;28;20041;-64
2022/11/16 05:14:34;;;;;;;10.60;8.57;;;10.70;90.50;;;;;;5034730;28;20037;-64
2022/11/16 05:17:00;;;;;;;8.38;7.53;;;10.70;90.50;;;;;;5032557;28;20048;-64
2022/11/16 05:22:10;;;;;;;8.32;7.43;;;10.70;90.40;;;;;;5032120;28;20101;-63
2022/11/16 05:24:35;;;;;;;8.93;7.60;;;10.80;90.40;;;;;;5029992;28;20037;-63
2022/11/16 05:27:13;;;;;;;8.55;7.13;;;10.80;90.40;;;;;;5030014;28;20385;-64
2022/11/16 05:29:39;;;;;;;9.48;8.48;;;10.80;90.50;;;;;;5032428;28;20061;-63
2022/11/16 05:32:05;;;;;;;9.25;8.32;;;10.80;90.30;;;;;;5035834;28;20057;-63
2022/11/16 05:34:31;;;;;;;9.60;8.18;;;10.80;90.30;;;;;;5035317;28;20537;-63
2022/11/16 05:36:57;;;;;;;12.10;8.68;;;10.90;90.30;;;;;;5036068;28;20040;-63
2022/11/16 05:39:23;;;;;;;10.15;8.82;;;10.90;90.30;;;;;;5035733;28;20512;-61
2022/11/16 05:41:49;;;;;;;12.95;8.57;;;10.90;90.30;;;;;;5037361;28;20273;-63
2022/11/16 05:44:16;;;;;;;10.43;8.50;;;10.90;90.30;;;;;;5037233;28;20408;-63
2022/11/16 05:46:42;;;;;;;9.57;8.05;;;10.90;90.30;;;;;;5036520;28;20032;-63
2022/11/16 05:49:09;;;;;;;9.73;7.55;;;10.90;90.30;;;;;;5037265;28;20176;-63
2022/11/16 05:51:35;;;;;;;9.40;7.97;;;10.90;90.30;;;;;;5036871;28;20503;-63
2022/11/16 05:54:02;;;;;;;8.23;7.35;;;10.90;90.30;;;;;;5040600;28;20099;-63
2022/11/16 05:56:28;;;;;;;8.65;7.40;;;11.00;90.30;;;;;;5040356;28;20032;-63
2022/11/16 05:58:55;;;;;;;9.50;7.20;;;11.00;90.20;;;;;;5039730;28;20036;-63
2022/11/16 06:01:20;;;;;;;9.02;7.93;;;11.00;90.20;;;;;;5037768;28;21843;-63
2022/11/16 06:03:46;;;;;;;8.52;7.60;;;11.00;90.20;;;;;;5039812;28;20029;-63
2022/11/16 06:06:12;;;;;;;8.80;7.85;;;11.00;90.10;;;;;;5041221;28;20481;-62
2022/11/16 06:08:37;;;;;;;9.30;7.60;;;11.00;90.10;;;;;;5038542;28;20056;-62
2022/11/16 06:11:04;;;;;;;8.32;7.10;;;11.00;90.10;;;;;;5038731;28;20041;-63
2022/11/16 06:13:31;;;;;;;9.35;7.35;;;11.00;90.10;;;;;;5038171;28;20056;-63
2022/11/16 06:15:57;;;;;;;8.30;7.10;;;11.10;90.20;;;;;;5039022;28;20040;-63
2022/11/16 06:18:23;;;;;;;8.40;7.53;;;11.10;90.20;;;;;;5039720;28;20037;-63
2022/11/16 06:20:49;;;;;;;7.93;6.90;;;11.10;90.20;;;;;;5038982;28;20136;-63
2022/11/16 06:23:14;;;;;;;9.38;7.88;;;11.10;90.30;;;;;;5039553;28;20035;-62
2022/11/16 06:25:40;;;;;;;9.93;8.30;;;11.10;90.30;;;;;;5039782;28;20029;-62
2022/11/16 06:28:06;;;;;;;11.13;9.13;;;11.10;90.30;;;;;;5039227;28;20112;-63
2022/11/16 06:30:32;;;;;;;8.02;6.93;;;11.10;90.30;;;;;;5039325;28;20497;-63
2022/11/16 06:32:57;;;;;;;8.32;7.47;;;11.10;90.20;;;;;;5039780;28;20037;-64
2022/11/16 06:35:23;;;;;;;9.20;7.38;;;11.20;90.30;;;;;;5038909;28;20120;-63
2022/11/16 06:37:49;;;;;;;13.93;10.32;;;11.20;90.30;;;;;;5039078;28;20048;-63
2022/11/16 06:40:15;;;;;;;11.63;8.77;;;11.20;90.30;;;;;;5038983;28;20037;-62
2022/11/16 06:42:40;;;;;;;22.35;14.00;;;11.20;90.30;;;;;;5038351;28;20039;-63
2022/11/16 06:45:06;;;;;;;17.05;11.80;;;11.20;90.30;;;;;;5037680;28;20033;-63
2022/11/16 06:47:33;;;;;;;15.60;10.55;;;11.20;90.30;;;;;;5040336;28;20489;-63
2022/11/16 06:49:59;;;;;;;19.20;12.63;;;11.20;90.30;;;;;;5041178;28;20029;-62
2022/11/16 06:52:24;;;;;;;17.90;12.65;;;11.20;90.30;;;;;;5040139;28;20044;-62
2022/11/16 06:54:50;;;;;;;18.58;12.23;;;11.20;90.20;;;;;;5039835;28;20120;-63
2022/11/16 06:57:16;;;;;;;17.00;10.57;;;11.20;90.20;;;;;;5040486;28;20116;-62
2022/11/16 06:59:41;;;;;;;13.20;9.18;;;11.20;90.20;;;;;;5039973;28;20461;-63
2022/11/16 07:02:11;;;;;;;19.98;13.73;;;11.20;90.20;;;;;;5040154;28;20047;-63
2022/11/16 07:04:37;;;;;;;25.05;15.57;;;11.30;90.20;;;;;;5040731;28;20032;-63
2022/11/16 07:07:03;;;;;;;25.30;15.63;;;11.30;90.20;;;;;;5039682;28;20025;-62
2022/11/16 07:09:28;;;;;;;18.20;11.95;;;11.30;90.20;;;;;;5040592;28;20031;-62
2022/11/16 07:11:54;;;;;;;12.65;8.88;;;11.30;90.20;;;;;;5037066;28;20033;-61
2022/11/16 07:14:20;;;;;;;9.52;8.10;;;11.30;90.20;;;;;;5039405;28;20285;-63
2022/11/16 07:16:45;;;;;;;10.05;8.45;;;11.30;90.20;;;;;;5039178;28;20117;-62
2022/11/16 07:19:11;;;;;;;11.13;10.02;;;11.30;90.20;;;;;;5040076;28;20060;-62
2022/11/16 07:21:37;;;;;;;9.10;8.20;;;11.30;90.20;;;;;;5039670;28;20030;-63
2022/11/16 07:24:03;;;;;;;9.57;7.78;;;11.30;90.20;;;;;;5039556;28;20033;-63
2022/11/16 07:26:31;;;;;;;9.20;6.88;;;11.40;90.20;;;;;;5039876;28;20079;-63
2022/11/16 07:29:00;;;;;;;7.75;6.93;;;11.30;90.20;;;;;;5040167;28;20033;-61
2022/11/16 07:31:25;;;;;;;7.20;6.20;;;11.30;90.20;;;;;;5039561;28;20112;-61
2022/11/16 07:33:51;;;;;;;7.63;6.72;;;11.40;90.20;;;;;;5038854;28;20450;-62
2022/11/16 07:36:17;;;;;;;8.18;6.72;;;11.30;90.20;;;;;;5037927;28;20036;-62
2022/11/16 07:38:43;;;;;;;7.53;6.38;;;11.40;90.20;;;;;;5039020;28;20484;-63
2022/11/16 07:41:12;;;;;;;8.10;6.20;;;11.40;90.20;;;;;;5037284;28;20090;-62
2022/11/16 07:43:38;;;;;;;7.57;6.13;;;11.40;90.20;;;;;;5038457;28;20412;-63
2022/11/16 07:46:10;;;;;;;7.00;5.85;;;11.40;90.10;;;;;;5037246;28;20420;-62
2022/11/16 07:48:36;;;;;;;7.95;6.50;;;11.40;90.10;;;;;;5036185;28;20033;-62
2022/11/16 07:51:06;;;;;;;7.60;6.07;;;11.40;90.10;;;;;;5037435;28;20039;-62
2022/11/16 07:53:33;;;;;;;7.38;6.15;;;11.40;90.10;;;;;;5037683;28;20102;-63
2022/11/16 07:55:59;;;;;;;6.65;5.93;;;11.40;90.10;;;;;;5036868;28;20032;-63
2022/11/16 07:58:27;;;;;;;7.43;6.30;;;11.50;90.10;;;;;;5038563;28;20025;-63
2022/11/16 08:00:52;;;;;;;6.93;6.22;;;11.50;90.00;;;;;;5037754;28;20037;-61
2022/11/16 08:03:19;;;;;;;6.97;6.00;;;11.50;90.00;;;;;;5036684;28;20510;-62
2022/11/16 08:05:45;;;;;;;7.00;5.80;;;11.50;90.10;;;;;;5037367;28;20037;-63
2022/11/16 08:08:11;;;;;;;8.35;6.20;;;11.50;90.10;;;;;;5037719;28;20398;-62
2022/11/16 08:10:37;;;;;;;9.13;5.70;;;11.50;90.00;;;;;;5034503;28;20116;-62
2022/11/16 08:13:03;;;;;;;6.60;5.90;;;11.50;90.10;;;;;;5036456;28;20136;-61
2022/11/16 08:15:29;;;;;;;6.18;5.57;;;11.50;90.10;;;;;;5037258;28;20041;-61
2022/11/16 08:17:57;;;;;;;7.28;6.05;;;11.50;90.20;;;;;;5036428;28;20403;-62
2022/11/16 08:20:23;;;;;;;7.45;5.93;;;11.50;90.20;;;;;;5036292;28;20059;-62
2022/11/16 08:22:48;;;;;;;7.22;5.82;;;11.50;90.20;;;;;;5036099;28;20041;-62
2022/11/16 08:25:14;;;;;;;7.28;5.82;;;11.60;90.20;;;;;;5037912;28;20033;-62
2022/11/16 08:27:40;;;;;;;6.38;5.70;;;11.60;90.30;;;;;;5036798;28;20493;-63
2022/11/16 08:30:08;;;;;;;7.53;6.18;;;11.60;90.20;;;;;;5036146;28;20040;-63
2022/11/16 08:32:35;;;;;;;6.65;5.53;;;11.60;90.20;;;;;;5036492;28;20039;-63
2022/11/16 08:35:01;;;;;;;6.53;5.78;;;11.60;90.20;;;;;;5036158;28;20041;-61
2022/11/16 08:37:27;;;;;;;6.25;5.57;;;11.70;90.20;;;;;;5036768;28;20569;-63
2022/11/16 08:39:53;;;;;;;6.35;5.30;;;11.70;90.10;;;;;;5038073;28;20033;-62
2022/11/16 08:42:20;;;;;;;5.53;4.97;;;11.70;90.00;;;;;;5036082;28;20033;-62
2022/11/16 08:44:45;;;;;;;6.72;5.22;;;11.80;90.00;;;;;;5036097;28;20040;-62
2022/11/16 08:47:11;;;;;;;8.88;5.68;;;11.70;90.20;;;;;;5036732;28;20037;-63
2022/11/16 08:49:37;;;;;;;6.20;5.60;;;11.80;90.00;;;;;;5036209;28;20026;-62
2022/11/16 08:52:02;;;;;;;6.18;5.00;;;11.80;90.00;;;;;;5037032;28;20128;-62
2022/11/16 08:54:29;;;;;;;7.90;5.95;;;11.80;90.00;;;;;;5036370;28;20119;-62
2022/11/16 08:56:54;;;;;;;8.10;5.78;;;11.80;90.00;;;;;;5036037;28;20118;-62
2022/11/16 08:59:20;;;;;;;5.13;4.63;;;11.80;90.10;;;;;;5037841;28;20064;-62
2022/11/16 09:01:45;;;;;;;5.72;4.82;;;11.90;90.00;;;;;;5037795;28;20048;-60
2022/11/16 09:04:11;;;;;;;6.22;5.03;;;11.90;90.00;;;;;;5035891;28;20357;-63
2022/11/16 09:06:37;;;;;;;7.70;4.95;;;11.90;89.90;;;;;;5035697;28;20616;-62
2022/11/16 09:09:03;;;;;;;5.32;4.50;;;12.00;89.90;;;;;;5036732;28;20136;-61
2022/11/16 09:11:28;;;;;;;7.70;5.00;;;12.00;89.70;;;;;;5032282;28;20351;-62
2022/11/16 09:13:55;;;;;;;6.45;4.55;;;12.00;89.50;;;;;;5034674;28;20396;-62
2022/11/16 09:16:21;;;;;;;7.50;4.97;;;12.10;89.50;;;;;;5036099;28;20030;-62
2022/11/16 09:18:49;;;;;;;6.70;4.65;;;12.10;89.40;;;;;;5035945;28;20083;-62
2022/11/16 09:21:23;;;;;;;5.30;4.13;;;12.10;89.20;;;;;;5036686;28;20276;-62
2022/11/16 09:23:49;;;;;;;6.47;4.18;;;12.20;88.80;;;;;;5038046;28;20463;-61
2022/11/16 09:26:19;;;;;;;4.63;3.90;;;12.20;88.80;;;;;;5039537;28;20040;-61
2022/11/16 09:28:45;;;;;;;5.45;4.40;;;12.20;88.80;;;;;;5041840;28;20117;-62
2022/11/16 09:31:10;;;;;;;7.22;4.05;;;12.30;88.80;;;;;;5041889;28;20024;-62
2022/11/16 09:33:36;;;;;;;4.68;3.97;;;12.30;88.60;;;;;;5041750;28;20033;-62
2022/11/16 09:36:07;;;;;;;5.70;4.47;;;12.30;88.60;;;;;;5039120;28;20032;-60
2022/11/16 09:38:44;;;;;;;6.95;4.20;;;12.30;88.50;;;;;;5041401;28;20412;-62
2022/11/16 09:41:12;;;;;;;6.80;3.90;;;12.40;88.50;;;;;;5040005;28;20057;-62
2022/11/16 09:43:53;;;;;;;6.68;3.70;;;12.40;88.50;;;;;;5039512;28;20037;-62
2022/11/16 09:46:30;;;;;;;4.90;3.50;;;12.40;88.40;;;;;;5039350;28;20029;-62
2022/11/16 09:48:59;;;;;;;4.35;3.67;;;12.50;88.50;;;;;;5040045;28;20037;-62
2022/11/16 09:51:28;;;;;;;7.88;3.50;;;12.50;88.50;;;;;;5040643;28;20060;-62
2022/11/16 09:54:05;;;;;;;4.10;3.42;;;12.50;88.60;;;;;;5040048;28;20029;-63
2022/11/16 09:56:34;;;;;;;5.28;3.60;;;12.60;88.50;;;;;;5038870;28;20038;-62
2022/11/16 09:59:11;;;;;;;4.10;3.33;;;12.60;88.60;;;;;;5039485;28;20432;-63
2022/11/16 10:02:09;;;;;;;3.78;3.40;;;12.60;88.60;;;;;;5039408;28;20036;-61
2022/11/16 10:04:35;;;;;;;5.05;3.15;;;12.70;88.70;;;;;;5033809;28;20129;-61
2022/11/16 10:07:16;;;;;;;3.83;3.05;;;12.80;88.70;;;;;;5039914;28;20417;-62
2022/11/16 10:09:43;;;;;;;5.55;3.20;;;12.80;88.40;;;;;;5040076;28;20029;-62
2022/11/16 10:12:11;;;;;;;5.78;2.85;;;12.90;88.50;;;;;;5036923;28;20033;-62
2022/11/16 10:15:06;;;;;;;3.83;2.80;;;13.00;88.30;;;;;;5040409;28;20440;-62
2022/11/16 10:18:05;;;;;;;3.83;2.70;;;13.00;88.10;;;;;;5034903;28;20036;-63
2022/11/16 10:20:55;;;;;;;2.90;2.40;;;13.10;87.70;;;;;;5038922;28;20079;-62
2022/11/16 10:23:30;;;;;;;3.05;2.13;;;13.20;87.90;;;;;;5038994;28;20128;-63
2022/11/16 10:26:03;;;;;;;1.92;1.60;;;13.20;87.40;;;;;;5039095;28;20033;-62
2022/11/16 10:28:56;;;;;;;4.88;1.85;;;13.30;87.20;;;;;;5039462;28;20025;-62
2022/11/16 10:31:50;;;;;;;4.43;2.08;;;13.40;86.20;;;;;;5039132;28;20109;-63
2022/11/16 10:34:22;;;;;;;2.28;1.38;;;13.40;85.90;;;;;;5039155;28;20041;-62
2022/11/16 10:36:47;;;;;;;4.03;1.20;;;13.50;86.30;;;;;;5038523;28;20120;-60
2022/11/16 10:39:15;;;;;;;2.38;0.95;;;13.50;86.10;;;;;;5038823;28;20037;-61
2022/11/16 10:41:41;;;;;;;3.08;1.08;;;13.50;85.70;;;;;;5039886;28;20086;-62
2022/11/16 10:44:43;;;;;;;4.00;1.10;;;13.60;85.40;;;;;;5038418;28;20037;-62
2022/11/16 10:47:18;;;;;;;1.73;1.00;;;13.70;84.00;;;;;;5038557;28;20041;-63
2022/11/16 10:49:57;;;;;;;2.08;0.80;;;13.80;84.20;;;;;;5038725;28;20033;-60
2022/11/16 10:52:24;;;;;;;1.30;0.70;;;13.80;83.30;;;;;;5039333;28;20567;-62
2022/11/16 10:54:49;;;;;;;1.25;0.70;;;13.90;83.60;;;;;;5037798;28;20570;-62
2022/11/16 10:57:16;;;;;;;3.95;0.80;;;13.90;83.10;;;;;;5038741;28;20037;-62
2022/11/16 10:59:46;;;;;;;1.50;0.85;;;13.90;82.60;;;;;;5038598;28;20063;-61
2022/11/16 11:02:35;;;;;;;2.38;0.73;;;13.90;82.10;;;;;;5037952;28;20061;-61
2022/11/16 11:05:05;;;;;;;4.15;1.05;;;14.00;80.60;;;;;;5036059;28;20040;-63
2022/11/16 11:07:38;;;;;;;1.70;0.80;;;14.00;81.70;;;;;;5038471;28;20078;-61
2022/11/16 11:10:20;;;;;;;2.08;0.90;;;14.00;80.80;;;;;;5038985;28;20044;-61
2022/11/16 11:13:25;;;;;;;3.33;0.70;;;14.00;81.20;;;;;;5035135;28;20040;-62
2022/11/16 11:16:11;;;;;;;2.88;0.80;;;14.00;80.30;;;;;;5037277;28;20037;-60
2022/11/16 11:18:36;;;;;;;;;;;14.10;81.40;;;;;;5039060;28;20459;-61
2022/11/16 11:21:06;;;;;;;3.55;0.60;;;14.10;80.50;;;;;;5038634;28;19917;-62
2022/11/16 11:23:43;;;;;;;1.20;0.52;;;14.10;81.00;;;;;;5039637;28;20053;-62
2022/11/16 11:26:31;;;;;;;3.80;0.80;;;14.10;81.20;;;;;;5040254;28;20033;-62
2022/11/16 11:28:59;;;;;;;5.03;1.30;;;14.20;80.30;;;;;;5039298;28;20116;-62
2022/11/16 11:31:41;;;;;;;1.25;0.57;;;14.10;80.50;;;;;;5038938;28;20270;-61
2022/11/16 11:34:20;;;;;;;2.80;0.90;;;14.10;78.30;;;;;;5038889;28;20039;-61
2022/11/16 11:37:02;;;;;;;2.83;0.70;;;14.10;78.70;;;;;;5037260;28;20374;-62
2022/11/16 11:39:31;;;;;;;1.80;0.93;;;14.10;79.10;;;;;;5039365;28;20040;-62
2022/11/16 11:42:02;;;;;;;3.80;0.77;;;14.10;79.30;;;;;;5037425;28;20463;-62
2022/11/16 11:44:49;;;;;;;2.05;0.82;;;14.10;79.30;;;;;;5037966;28;20045;-62
2022/11/16 11:47:40;;;;;;;1.90;0.90;;;14.10;77.40;;;;;;5036934;28;20061;-62
2022/11/16 11:50:15;;;;;;;3.15;0.77;;;14.10;76.80;;;;;;5034678;28;20079;-62
2022/11/16 11:52:47;;;;;;;;;;;14.10;77.70;;;;;;5037138;28;20049;-62
2022/11/16 11:55:16;;;;;;;2.13;0.80;;;14.20;77.10;;;;;;5036880;28;19921;-61
2022/11/16 11:57:45;;;;;;;2.10;0.80;;;14.10;78.50;;;;;;5039082;28;20033;-62
2022/11/16 12:00:13;;;;;;;2.80;0.80;;;14.10;78.50;;;;;;5036905;28;20040;-62
2022/11/16 12:02:57;;;;;;;2.03;0.60;;;14.10;78.40;;;;;;5037404;28;20061;-62
2022/11/16 12:06:00;;;;;;;2.70;0.90;;;14.10;77.90;;;;;;5036409;28;20136;-61
2022/11/16 12:08:59;;;;;;;4.93;0.80;;;14.20;78.00;;;;;;5037784;28;20375;-61
2022/11/16 12:11:49;;;;;;;3.10;0.60;;;14.20;78.30;;;;;;5034429;28;20386;-62
2022/11/16 12:14:24;;;;;;;1.00;0.50;;;14.20;77.90;;;;;;5037623;28;20077;-62
2022/11/16 12:16:58;;;;;;;;;;;14.20;77.70;;;;;;5036305;28;20409;-62
2022/11/16 12:19:24;;;;;;;1.73;0.50;;;14.30;77.50;;;;;;5037200;28;19917;-61
2022/11/16 12:22:10;;;;;;;4.07;0.50;;;14.30;78.20;;;;;;5038378;28;20103;-62
2022/11/16 12:25:19;;;;;;;2.67;0.77;;;14.30;78.50;;;;;;5037041;28;20049;-61
2022/11/16 12:28:30;;;;;;;1.90;0.68;;;14.40;76.30;;;;;;5038268;28;20417;-62
2022/11/16 12:31:19;;;;;;;4.50;0.70;;;14.40;76.10;;;;;;5037073;28;20040;-61
2022/11/16 12:34:08;;;;;;;5.22;1.20;;;14.40;76.30;;;;;;5036185;28;20183;-62
2022/11/16 12:36:46;;;;;;;3.53;0.85;;;14.40;74.40;;;;;;5037112;28;20116;-61
2022/11/16 12:39:41;;;;;;;3.05;0.90;;;14.30;75.60;;;;;;5036360;28;20033;-62
2022/11/16 12:42:37;;;;;;;2.55;0.80;;;14.30;75.10;;;;;;5037876;28;20056;-62
2022/11/16 12:45:25;;;;;;;3.03;1.20;;;14.30;75.30;;;;;;5036099;28;20075;-62
2022/11/16 12:48:01;;;;;;;3.40;0.70;;;14.30;74.60;;;;;;5036193;28;20037;-62
2022/11/16 12:50:47;;;;;;;3.58;1.27;;;14.30;75.40;;;;;;5037120;28;20528;-61
2022/11/16 12:53:35;;;;;;;2.17;0.90;;;14.30;74.00;;;;;;5037583;28;20532;-62
2022/11/16 12:56:22;;;;;;;2.50;1.38;;;14.30;73.80;;;;;;5034830;28;20036;-62
2022/11/16 12:59:26;;;;;;;5.07;0.90;;;14.20;74.20;;;;;;5037284;28;20045;-61
2022/11/16 13:02:07;;;;;;;2.15;0.63;;;14.20;74.30;;;;;;5035547;28;20270;-60
2022/11/16 13:04:39;;;;;;;3.35;0.70;;;14.20;74.90;;;;;;5036574;28;20033;-63
2022/11/16 13:07:46;;;;;;;3.95;0.80;;;14.10;75.30;;;;;;5036766;28;20068;-62
2022/11/16 13:10:16;;;;;;;;;;;14.20;74.60;;;;;;5026728;28;20119;-62
2022/11/16 13:12:44;;;;;;;2.25;0.55;;;14.20;75.40;;;;;;5033706;28;19970;-61
2022/11/16 13:15:19;;;;;;;1.60;0.65;;;14.20;76.00;;;;;;5036855;28;20155;-62
2022/11/16 13:18:02;;;;;;;3.38;0.57;;;14.30;75.00;;;;;;5036656;28;20044;-61
2022/11/16 13:20:34;;;;;;;1.25;0.60;;;14.30;74.70;;;;;;5034870;28;20057;-62
2022/11/16 13:23:18;;;;;;;1.23;0.50;;;14.20;75.40;;;;;;5037585;28;20029;-60
2022/11/16 13:26:01;;;;;;;2.80;1.10;;;14.30;74.90;;;;;;5038360;28;20440;-61
2022/11/16 13:28:35;;;;;;;3.28;1.40;;;14.30;75.10;;;;;;5037580;28;20021;-60
2022/11/16 13:31:13;;;;;;;1.73;0.70;;;14.30;75.60;;;;;;5036824;28;20037;-62
2022/11/16 13:33:46;;;;;;;3.67;0.90;;;14.30;75.50;;;;;;5037893;28;20044;-62
2022/11/16 13:36:30;;;;;;;1.40;0.50;;;14.30;75.40;;;;;;5036397;28;20026;-62
2022/11/16 13:38:56;;;;;;;4.55;0.77;;;14.30;74.90;;;;;;5036874;28;20184;-62
2022/11/16 13:41:50;;;;;;;3.90;1.00;;;14.30;75.60;;;;;;5037036;28;20116;-62
2022/11/16 13:44:19;;;;;;;2.28;0.80;;;14.30;74.50;;;;;;5036493;28;20041;-60